Terminal Aerodrome Forecast
Issued by NWS

Home | Current Version | Previous Version | Text Only | Print | Product List | Glossary On
Versions: 1 2 3 4 5 6 7 8 9 10 11 12 13 14 15 16 17 18 19
000
FTUS45 KRIW 161723
TAFPNA
TAF
KPNA 161723Z 1618/1718 31008KT 2SM -SN SCT006 OVC012
     FM162300 29011KT 4SM -SN SCT009 OVC018
     FM170900 34007KT P6SM VCFG SCT003 BKN030
     FM171700 33011KT P6SM SCT090
      AMD LTD TO CLD VIS AND WIND=

USA.gov is the U.S. government's official web portal to all federal, state and local government web resources and services.